createdAt,value
2022-09-24T00:01:49.218Z,101217.09
2022-09-24T00:04:17.124Z,101216.19
2022-09-24T00:06:47.245Z,101217.16
2022-09-24T00:09:22.139Z,101214.31
2022-09-24T00:11:52.314Z,101211.97
2022-09-24T00:14:20.739Z,101223.59
2022-09-24T00:16:49.744Z,101217.72
2022-09-24T00:19:18.022Z,101213.44
2022-09-24T00:21:45.993Z,101210.50
2022-09-24T00:24:32.271Z,101222.41
2022-09-24T00:27:00.359Z,101213.81
2022-09-24T00:29:28.526Z,101211.34
2022-09-24T00:31:56.807Z,101206.72
2022-09-24T00:34:24.864Z,101208.22
2022-09-24T00:36:53.468Z,101218.34
2022-09-24T00:39:22.751Z,101208.97
2022-09-24T00:41:50.755Z,101214.28
2022-09-24T00:44:54.505Z,101208.59
2022-09-24T00:47:36.077Z,101200.16
2022-09-24T00:50:25.109Z,101202.25
2022-09-24T00:52:57.504Z,101204.63
2022-09-24T00:55:28.450Z,101206.13
2022-09-24T00:57:58.337Z,101195.63
2022-09-24T01:00:26.968Z,101201.66
2022-09-24T01:03:01.727Z,101197.50
2022-09-24T01:05:29.828Z,101210.25
2022-09-24T01:07:58.189Z,101197.94
2022-09-24T01:10:55.287Z,101204.00
2022-09-24T01:13:43.335Z,101198.97
2022-09-24T01:16:20.914Z,101204.09
2022-09-24T01:18:55.308Z,101200.03
2022-09-24T01:21:33.318Z,101195.13
2022-09-24T01:24:14.533Z,101186.50
2022-09-24T01:27:01.626Z,101196.00
2022-09-24T01:29:41.852Z,101178.88
2022-09-24T01:32:14.623Z,101186.13
2022-09-24T01:34:47.066Z,101178.41
2022-09-24T01:37:18.409Z,101179.53
2022-09-24T01:39:48.079Z,101177.84
2022-09-24T01:42:17.423Z,101178.44
2022-09-24T01:44:49.090Z,101174.47
2022-09-24T01:47:21.168Z,101175.22
2022-09-24T01:49:53.471Z,101180.63
2022-09-24T01:52:26.920Z,101176.94
2022-09-24T01:54:57.965Z,101174.19
2022-09-24T01:57:30.075Z,101177.31
2022-09-24T02:00:05.079Z,101176.19
2022-09-24T02:02:46.310Z,101172.41
2022-09-24T02:05:21.100Z,101173.84
2022-09-24T02:07:58.460Z,101174.50
2022-09-24T02:10:28.600Z,101172.06
2022-09-24T02:13:03.069Z,101165.88
2022-09-24T02:15:34.973Z,101164.84
2022-09-24T02:18:07.992Z,101168.72
2022-09-24T02:20:37.853Z,101167.97
2022-09-24T02:23:07.088Z,101170.13
2022-09-24T02:25:40.709Z,101162.34
2022-09-24T02:28:08.391Z,101155.59
2022-09-24T02:30:44.065Z,101165.00
2022-09-24T02:33:29.052Z,101161.00
2022-09-24T02:35:57.450Z,101167.16
2022-09-24T02:38:25.384Z,101164.22
2022-09-24T02:40:54.654Z,101157.03
2022-09-24T02:43:22.571Z,101157.03
2022-09-24T02:45:51.753Z,101162.50
2022-09-24T02:48:19.678Z,101164.22
2022-09-24T02:50:47.702Z,101159.59
2022-09-24T02:53:15.552Z,101159.66
2022-09-24T02:55:43.510Z,101166.03
2022-09-24T02:58:11.360Z,101159.38
2022-09-24T03:00:39.392Z,101158.25
2022-09-24T03:03:08.715Z,101161.78
2022-09-24T03:05:36.702Z,101156.47
2022-09-24T03:08:04.588Z,101163.38
2022-09-24T03:10:32.394Z,101159.13
2022-09-24T03:13:00.409Z,101160.28
2022-09-24T03:15:29.745Z,101160.72
2022-09-24T03:17:57.645Z,101156.09
2022-09-24T03:20:26.819Z,101153.72
2022-09-24T03:22:54.645Z,101151.19
2022-09-24T03:25:22.736Z,101154.78
2022-09-24T03:27:50.577Z,101151.44
2022-09-24T03:30:36.605Z,101148.13
2022-09-24T03:33:04.538Z,101158.34
2022-09-24T03:35:34.012Z,101153.88
2022-09-24T03:38:02.094Z,101150.28
2022-09-24T03:40:30.147Z,101145.47
2022-09-24T03:42:58.088Z,101145.25
2022-09-24T03:45:25.924Z,101149.31
2022-09-24T03:47:53.751Z,101146.19
2022-09-24T03:50:21.741Z,101153.56
2022-09-24T03:52:50.976Z,101152.16
2022-09-24T03:55:19.068Z,101150.25
2022-09-24T03:57:46.986Z,101144.38
2022-09-24T04:00:15.677Z,101142.28
2022-09-24T04:02:43.726Z,101145.50
2022-09-24T04:05:11.777Z,101148.72
2022-09-24T04:07:39.836Z,101150.78
2022-09-24T04:10:10.220Z,101151.66
2022-09-24T04:12:38.115Z,101142.16
2022-09-24T04:15:06.815Z,101153.13
2022-09-24T04:17:34.679Z,101152.28
2022-09-24T04:20:02.939Z,101145.97
2022-09-24T04:22:31.469Z,101146.31
2022-09-24T04:24:59.286Z,101150.78
2022-09-24T04:27:28.545Z,101141.03
2022-09-24T04:29:56.637Z,101142.94
2022-09-24T04:32:24.499Z,101140.38
2022-09-24T04:34:52.365Z,101140.13
2022-09-24T04:37:20.181Z,101146.47
2022-09-24T04:39:48.011Z,101136.50
2022-09-24T04:42:19.173Z,101145.63
2022-09-24T04:44:51.717Z,101139.66
2022-09-24T04:47:25.934Z,101141.53
2022-09-24T04:49:53.945Z,101146.19
2022-09-24T04:52:29.750Z,101143.38
2022-09-24T04:54:58.080Z,101135.97
2022-09-24T04:57:25.917Z,101144.78
2022-09-24T04:59:55.307Z,101146.41
2022-09-24T05:02:24.216Z,101148.91
2022-09-24T05:04:52.210Z,101151.13
2022-09-24T05:07:20.214Z,101151.94
2022-09-24T05:09:48.133Z,101145.88
2022-09-24T05:12:16.151Z,101148.84
2022-09-24T05:14:44.101Z,101149.31
2022-09-24T05:17:13.402Z,101156.47
2022-09-24T05:19:41.366Z,101153.72
2022-09-24T05:22:09.332Z,101157.34
2022-09-24T05:24:37.170Z,101154.41
2022-09-24T05:27:11.094Z,101154.59
2022-09-24T05:29:40.019Z,101161.72
2022-09-24T05:32:09.082Z,101151.75
2022-09-24T05:34:38.548Z,101154.25
2022-09-24T05:37:06.955Z,101156.53
2022-09-24T05:39:34.906Z,101161.41
2022-09-24T05:42:04.285Z,101160.56
2022-09-24T05:44:32.661Z,101166.91
2022-09-24T05:47:01.072Z,101157.94
2022-09-24T05:49:29.055Z,101168.72
2022-09-24T05:51:58.225Z,101164.94
2022-09-24T05:54:26.288Z,101165.66
2022-09-24T05:56:54.353Z,101170.16
2022-09-24T05:59:22.258Z,101174.41
2022-09-24T06:01:50.241Z,101174.22
2022-09-24T06:04:18.165Z,101182.06
2022-09-24T06:06:46.099Z,101178.75
2022-09-24T06:09:15.393Z,101177.91
2022-09-24T06:11:43.924Z,101178.97
2022-09-24T06:14:13.121Z,101179.22
2022-09-24T06:16:41.090Z,101186.13
2022-09-24T06:19:09.321Z,101185.00
2022-09-24T06:21:37.177Z,101182.75
2022-09-24T06:24:05.394Z,101196.47
2022-09-24T06:26:34.866Z,101197.13
2022-09-24T06:29:05.265Z,101197.81
2022-09-24T06:31:34.674Z,101190.03
2022-09-24T06:34:03.692Z,101197.03
2022-09-24T06:36:33.879Z,101197.03
2022-09-24T06:39:02.143Z,101206.13
2022-09-24T06:41:30.205Z,101198.06
2022-09-24T06:43:59.648Z,101207.72
2022-09-24T06:46:27.664Z,101216.81
2022-09-24T06:48:55.643Z,101212.34
2022-09-24T06:51:23.518Z,101208.97
2022-09-24T06:53:52.416Z,101211.31
2022-09-24T06:56:20.403Z,101208.41
2022-09-24T06:58:48.258Z,101211.06
2022-09-24T07:01:17.571Z,101214.94
2022-09-24T07:03:45.483Z,101213.25
2022-09-24T07:06:13.301Z,101225.56
2022-09-24T07:08:41.253Z,101210.59
2022-09-24T07:11:09.177Z,101221.28
2022-09-24T07:13:37.253Z,101210.84
2022-09-24T07:16:05.190Z,101215.50
2022-09-24T07:18:34.509Z,101211.44
2022-09-24T07:21:02.383Z,101226.69
2022-09-24T07:23:30.784Z,101228.19
2022-09-24T07:25:59.052Z,101229.91
2022-09-24T07:28:27.245Z,101228.66
2022-09-24T07:30:59.807Z,101226.09
2022-09-24T07:33:28.401Z,101231.59
2022-09-24T07:35:57.683Z,101245.69
2022-09-24T07:38:25.559Z,101239.38
2022-09-24T07:40:54.221Z,101242.56
2022-09-24T07:43:22.678Z,101238.06
2022-09-24T07:45:50.505Z,101235.00
2022-09-24T07:48:19.165Z,101236.41
2022-09-24T07:50:47.143Z,101237.75
2022-09-24T07:53:16.891Z,101241.09
2022-09-24T07:55:45.460Z,101239.00
2022-09-24T07:58:14.967Z,101239.94
2022-09-24T08:00:43.461Z,101244.09
2022-09-24T08:03:11.984Z,101249.41
2022-09-24T08:05:45.141Z,101246.38
2022-09-24T08:08:13.117Z,101248.25
2022-09-24T08:10:43.025Z,101244.56
2022-09-24T08:13:11.132Z,101242.59
2022-09-24T08:15:39.301Z,101250.38
2022-09-24T08:18:07.708Z,101256.50
2022-09-24T08:20:38.069Z,101257.53
2022-09-24T08:23:09.984Z,101253.28
2022-09-24T08:25:39.352Z,101252.72
2022-09-24T08:28:11.313Z,101253.38
2022-09-24T08:30:40.809Z,101256.31
2022-09-24T08:33:08.968Z,101261.44
2022-09-24T08:35:38.373Z,101267.19
2022-09-24T08:38:07.228Z,101258.41
2022-09-24T08:40:40.416Z,101265.41
2022-09-24T08:43:36.277Z,101270.03
2022-09-24T08:46:32.341Z,101273.47
2022-09-24T08:49:03.422Z,101268.34
2022-09-24T08:51:39.275Z,101262.56
2022-09-24T08:54:10.642Z,101271.84
2022-09-24T08:56:43.959Z,101274.69
2022-09-24T08:59:25.523Z,101271.56
2022-09-24T09:02:01.529Z,101278.97
2022-09-24T09:04:40.518Z,101274.31
2022-09-24T09:07:17.774Z,101277.81
2022-09-24T09:09:51.068Z,101286.44
2022-09-24T09:12:24.086Z,101286.75
2022-09-24T09:14:59.814Z,101285.56
2022-09-24T09:17:37.498Z,101302.06
2022-09-24T09:20:08.905Z,101280.56
2022-09-24T09:22:41.213Z,101296.97
2022-09-24T09:25:19.753Z,101295.41
2022-09-24T09:27:51.237Z,101294.22
2022-09-24T09:30:21.997Z,101292.59
2022-09-24T09:33:13.313Z,101300.66
2022-09-24T09:35:51.099Z,101299.91
2022-09-24T09:38:26.135Z,101302.75
2022-09-24T09:41:01.861Z,101300.81
2022-09-24T09:43:31.004Z,101300.47
2022-09-24T09:46:11.942Z,101305.88
2022-09-24T09:48:47.357Z,101306.53
2022-09-24T09:51:22.527Z,101316.28
2022-09-24T09:53:58.243Z,101315.03
2022-09-24T09:56:28.690Z,101316.47
2022-09-24T09:59:06.917Z,101303.88
2022-09-24T10:01:40.617Z,101305.19
2022-09-24T10:04:24.841Z,101309.63
2022-09-24T10:06:52.736Z,101307.19
2022-09-24T10:09:20.801Z,101307.84
2022-09-24T10:11:49.391Z,101307.19
2022-09-24T10:14:20.652Z,101313.06
2022-09-24T10:16:55.815Z,101316.94
2022-09-24T10:19:25.840Z,101315.69
2022-09-24T10:21:57.446Z,101312.59
2022-09-24T10:24:27.418Z,101308.00
2022-09-24T10:26:55.676Z,101309.56
2022-09-24T10:29:44.249Z,101307.66
2022-09-24T10:32:18.264Z,101310.41
2022-09-24T10:34:56.496Z,101311.91
2022-09-24T10:37:24.821Z,101319.69
2022-09-24T10:40:00.040Z,101316.94
2022-09-24T10:42:29.586Z,101324.25
2022-09-24T10:45:01.984Z,101324.06
2022-09-24T10:47:40.943Z,101330.97
2022-09-24T10:50:22.158Z,101322.34
2022-09-24T10:52:54.362Z,101325.28
2022-09-24T10:55:39.190Z,101326.13
2022-09-24T10:58:25.118Z,101334.19
2022-09-24T11:01:04.937Z,101324.63
2022-09-24T11:04:09.738Z,101337.34
2022-09-24T11:06:50.387Z,101327.75
2022-09-24T11:09:29.768Z,101327.44
2022-09-24T11:12:09.293Z,101337.50
2022-09-24T11:14:59.958Z,101336.25
2022-09-24T11:17:37.949Z,101338.16
2022-09-24T11:20:32.348Z,101344.72
2022-09-24T11:23:22.591Z,101344.44
2022-09-24T11:26:00.276Z,101342.44
2022-09-24T11:28:44.983Z,101342.63
2022-09-24T11:31:20.894Z,101342.72
2022-09-24T11:34:09.444Z,101342.34
2022-09-24T11:37:01.353Z,101348.22
2022-09-24T11:39:44.266Z,101342.25
2022-09-24T11:42:23.529Z,101347.00
2022-09-24T11:45:14.845Z,101354.84
2022-09-24T11:47:59.109Z,101345.81
2022-09-24T11:50:42.510Z,101349.34
2022-09-24T11:53:25.181Z,101351.31
2022-09-24T11:55:59.155Z,101352.84
2022-09-24T11:58:32.810Z,101358.44
2022-09-24T12:01:10.319Z,101352.00
2022-09-24T12:03:44.907Z,101352.28
2022-09-24T12:06:19.021Z,101349.16
2022-09-24T12:08:54.874Z,101354.75
2022-09-24T12:11:30.834Z,101356.25
2022-09-24T12:14:04.436Z,101356.16
2022-09-24T12:16:38.266Z,101358.16
2022-09-24T12:19:13.484Z,101362.78
2022-09-24T12:21:43.974Z,101370.47
2022-09-24T12:24:18.664Z,101359.28
2022-09-24T12:26:48.124Z,101355.78
2022-09-24T12:30:02.958Z,101367.91
2022-09-24T12:32:57.804Z,101367.81
2022-09-24T12:35:37.811Z,101367.72
2022-09-24T12:38:09.774Z,101371.16
2022-09-24T12:41:14.295Z,101367.91
2022-09-24T12:43:45.802Z,101378.06
2022-09-24T12:46:18.706Z,101377.13
2022-09-24T12:48:49.461Z,101376.06
2022-09-24T12:51:22.235Z,101390.00
2022-09-24T12:53:59.570Z,101376.53
2022-09-24T12:56:31.050Z,101382.50
2022-09-24T12:58:59.301Z,101392.53
2022-09-24T13:01:31.060Z,101389.31
2022-09-24T13:04:27.390Z,101393.03
2022-09-24T13:06:55.729Z,101393.56
2022-09-24T13:09:34.569Z,101395.28
2022-09-24T13:12:21.247Z,101391.97
2022-09-24T13:14:56.768Z,101400.19
2022-09-24T13:17:25.314Z,101402.56
2022-09-24T13:19:59.520Z,101396.03
2022-09-24T13:22:30.085Z,101398.97
2022-09-24T13:25:22.665Z,101396.25
2022-09-24T13:28:01.063Z,101391.63
2022-09-24T13:30:36.586Z,101391.78
2022-09-24T13:33:16.219Z,101399.00
2022-09-24T13:35:48.795Z,101389.31
2022-09-24T13:38:22.805Z,101386.38
2022-09-24T13:40:57.834Z,101394.81
2022-09-24T13:43:38.141Z,101391.72
2022-09-24T13:46:12.052Z,101400.50
2022-09-24T13:48:45.163Z,101401.91
2022-09-24T13:51:15.026Z,101390.84
2022-09-24T13:53:48.409Z,101398.78
2022-09-24T13:56:18.940Z,101390.66
2022-09-24T13:58:51.281Z,101397.06
2022-09-24T14:01:22.155Z,101391.97
2022-09-24T14:03:55.450Z,101396.88
2022-09-24T14:06:34.716Z,101395.78
2022-09-24T14:09:02.682Z,101387.63
2022-09-24T14:11:30.674Z,101391.34
2022-09-24T14:14:16.547Z,101392.94
2022-09-24T14:16:44.355Z,101385.72
2022-09-24T14:19:15.955Z,101393.41
2022-09-24T14:21:49.193Z,101385.44
2022-09-24T14:24:22.378Z,101388.66
2022-09-24T14:26:54.484Z,101395.41
2022-09-24T14:29:28.015Z,101391.53
2022-09-24T14:31:59.259Z,101399.69
2022-09-24T14:34:31.732Z,101394.06
2022-09-24T14:37:09.306Z,101391.06
2022-09-24T14:39:42.104Z,101397.78
2022-09-24T14:42:14.142Z,101401.38
2022-09-24T14:44:47.496Z,101405.81
2022-09-24T14:47:26.883Z,101423.34
2022-09-24T14:49:55.641Z,101423.81
2022-09-24T14:52:30.826Z,101426.47
2022-09-24T14:55:15.141Z,101427.78
2022-09-24T14:57:48.276Z,101426.44
2022-09-24T15:00:25.112Z,101422.66
2022-09-24T15:03:01.260Z,101419.03
2022-09-24T15:05:30.673Z,101422.06
2022-09-24T15:08:28.083Z,101405.94
2022-09-24T15:10:57.594Z,101415.59
2022-09-24T15:13:28.106Z,101414.06
2022-09-24T15:16:05.951Z,101419.47
2022-09-24T15:18:35.836Z,101412.47
2022-09-24T15:21:08.228Z,101417.59
2022-09-24T15:23:36.100Z,101413.72
2022-09-24T15:26:04.335Z,101414.84
2022-09-24T15:28:32.530Z,101420.44
2022-09-24T15:31:00.544Z,101410.59
2022-09-24T15:33:29.756Z,101422.66
2022-09-24T15:35:57.674Z,101421.09
2022-09-24T15:38:25.533Z,101426.06
2022-09-24T15:40:53.866Z,101418.84
2022-09-24T15:43:23.984Z,101421.41
2022-09-24T15:45:52.657Z,101416.88
2022-09-24T15:48:20.547Z,101422.66
2022-09-24T15:50:51.645Z,101421.47
2022-09-24T15:53:23.754Z,101422.03
2022-09-24T15:55:55.230Z,101413.22
2022-09-24T15:58:23.926Z,101415.59
2022-09-24T16:00:52.075Z,101410.19
2022-09-24T16:03:23.169Z,101412.84
2022-09-24T16:05:52.649Z,101425.44
2022-09-24T16:08:20.911Z,101413.91
2022-09-24T16:10:49.544Z,101417.50
2022-09-24T16:13:17.994Z,101414.16
2022-09-24T16:15:45.990Z,101417.94
2022-09-24T16:18:16.026Z,101417.59
2022-09-24T16:20:45.372Z,101428.50
2022-09-24T16:23:15.460Z,101426.69
2022-09-24T16:25:43.935Z,101430.91
2022-09-24T16:28:11.835Z,101432.03
2022-09-24T16:30:39.711Z,101425.56
2022-09-24T16:33:07.893Z,101429.13
2022-09-24T16:35:35.857Z,101434.28
2022-09-24T16:38:03.815Z,101436.50
2022-09-24T16:40:33.220Z,101436.50
2022-09-24T16:43:01.355Z,101437.84
2022-09-24T16:45:29.176Z,101445.47
2022-09-24T16:47:57.014Z,101440.59
2022-09-24T16:50:24.835Z,101441.63
2022-09-24T16:52:55.303Z,101447.16
2022-09-24T16:55:24.765Z,101450.97
2022-09-24T16:57:54.380Z,101457.97
2022-09-24T17:00:22.251Z,101446.41
2022-09-24T17:02:50.211Z,101456.38
2022-09-24T17:05:18.362Z,101455.72
2022-09-24T17:07:46.319Z,101456.22
2022-09-24T17:10:13.216Z,101461.09
2022-09-24T17:12:41.996Z,101469.47
2022-09-24T17:15:13.501Z,101475.44
2022-09-24T17:17:49.178Z,101468.06
2022-09-24T17:20:18.926Z,101466.34
2022-09-24T17:22:48.073Z,101471.34
2022-09-24T17:25:16.475Z,101469.09
2022-09-24T17:27:44.972Z,101473.72
2022-09-24T17:30:15.225Z,101476.47
2022-09-24T17:32:43.114Z,101477.31
2022-09-24T17:35:11.137Z,101483.56
2022-09-24T17:37:39.222Z,101482.59
2022-09-24T17:40:08.453Z,101480.88
2022-09-24T17:42:36.466Z,101485.38
2022-09-24T17:45:04.935Z,101486.38
2022-09-24T17:47:54.630Z,101489.47
2022-09-24T17:50:22.767Z,101486.25
2022-09-24T17:52:50.669Z,101491.75
2022-09-24T17:55:18.526Z,101496.94
2022-09-24T17:57:46.375Z,101498.34
2022-09-24T18:00:15.116Z,101502.59
2022-09-24T18:02:44.449Z,101504.69
2022-09-24T18:05:12.499Z,101505.72
2022-09-24T18:07:41.495Z,101504.00
2022-09-24T18:10:10.168Z,101505.88
2022-09-24T18:12:38.131Z,101505.97
2022-09-24T18:15:06.709Z,101506.25
2022-09-24T18:17:34.546Z,101512.81
2022-09-24T18:20:04.191Z,101513.47
2022-09-24T18:22:32.062Z,101519.16
2022-09-24T18:25:01.718Z,101531.00
2022-09-24T18:27:31.729Z,101516.94
2022-09-24T18:30:02.244Z,101525.38
2022-09-24T18:32:31.833Z,101520.91
2022-09-24T18:34:59.944Z,101516.53
2022-09-24T18:37:29.446Z,101524.41
2022-09-24T18:39:57.379Z,101515.09
2022-09-24T18:42:26.860Z,101528.28
2022-09-24T18:44:54.719Z,101529.16
2022-09-24T18:47:22.646Z,101524.88
2022-09-24T18:49:50.605Z,101528.28
2022-09-24T18:52:18.457Z,101526.44
2022-09-24T18:54:47.770Z,101532.13
2022-09-24T18:57:15.768Z,101525.59
2022-09-24T18:59:45.436Z,101528.69
2022-09-24T19:02:14.296Z,101533.16
2022-09-24T19:04:42.894Z,101526.81
2022-09-24T19:07:10.854Z,101531.13
2022-09-24T19:09:38.784Z,101534.75
2022-09-24T19:12:08.827Z,101533.38
2022-09-24T19:14:36.770Z,101535.25
2022-09-24T19:17:07.139Z,101540.38
2022-09-24T19:19:35.094Z,101536.66
2022-09-24T19:22:03.029Z,101549.84
2022-09-24T19:24:30.810Z,101550.72
2022-09-24T19:26:58.715Z,101547.09
2022-09-24T19:29:28.369Z,101545.56
2022-09-24T19:31:56.408Z,101543.84
2022-09-24T19:34:24.244Z,101544.22
2022-09-24T19:36:52.135Z,101548.34
2022-09-24T19:39:19.999Z,101554.03
2022-09-24T19:41:48.952Z,101547.47
2022-09-24T19:44:17.315Z,101556.41
2022-09-24T19:46:46.938Z,101553.84
2022-09-24T19:49:14.904Z,101561.19
2022-09-24T19:51:42.785Z,101552.09
2022-09-24T19:54:11.454Z,101551.59
2022-09-24T19:56:40.072Z,101545.09
2022-09-24T19:59:08.736Z,101550.44
2022-09-24T20:01:37.647Z,101551.31
2022-09-24T20:04:08.263Z,101550.81
2022-09-24T20:06:38.127Z,101551.50
2022-09-24T20:09:06.910Z,101545.69
2022-09-24T20:11:35.050Z,101538.50
2022-09-24T20:14:03.236Z,101539.53
2022-09-24T20:16:32.500Z,101541.94
2022-09-24T20:19:02.585Z,101538.88
2022-09-24T20:21:35.251Z,101540.91
2022-09-24T20:24:04.655Z,101548.78
2022-09-24T20:26:51.071Z,101540.75
2022-09-24T20:29:20.234Z,101548.78
2022-09-24T20:31:52.296Z,101538.38
2022-09-24T20:34:21.973Z,101539.91
2022-09-24T20:36:51.677Z,101541.28
2022-09-24T20:39:19.836Z,101543.16
2022-09-24T20:41:49.348Z,101541.97
2022-09-24T20:44:17.593Z,101546.09
2022-09-24T20:46:46.065Z,101536.84
2022-09-24T20:49:19.478Z,101544.91
2022-09-24T20:51:50.541Z,101540.94
2022-09-24T20:54:22.427Z,101534.78
2022-09-24T20:56:50.800Z,101539.41
2022-09-24T20:59:18.722Z,101546.25
2022-09-24T21:01:47.979Z,101543.50
2022-09-24T21:04:15.920Z,101546.09
2022-09-24T21:06:43.985Z,101547.66
2022-09-24T21:09:12.108Z,101545.13
2022-09-24T21:11:41.857Z,101549.38
2022-09-24T21:14:12.454Z,101551.78
2022-09-24T21:16:40.609Z,101549.53
2022-09-24T21:19:08.481Z,101549.03
2022-09-24T21:21:38.824Z,101556.75
2022-09-24T21:24:09.895Z,101552.63
2022-09-24T21:26:39.415Z,101556.09
2022-09-24T21:29:11.416Z,101554.34
2022-09-24T21:31:41.976Z,101556.09
2022-09-24T21:34:10.942Z,101556.75
2022-09-24T21:36:44.483Z,101550.25
2022-09-24T21:39:15.539Z,101556.59
2022-09-24T21:41:44.373Z,101556.41
2022-09-24T21:44:15.620Z,101560.16
2022-09-24T21:46:43.973Z,101563.44
2022-09-24T21:49:12.832Z,101565.63
2022-09-24T21:51:41.366Z,101561.88
2022-09-24T21:54:14.071Z,101559.13
2022-09-24T21:56:42.061Z,101562.22
2022-09-24T21:59:24.726Z,101555.38
2022-09-24T22:01:55.160Z,101559.69
2022-09-24T22:04:23.710Z,101551.09
2022-09-24T22:06:52.085Z,101555.22
2022-09-24T22:09:20.555Z,101557.25
2022-09-24T22:11:48.778Z,101557.28
2022-09-24T22:14:16.703Z,101551.59
2022-09-24T22:16:44.947Z,101551.59
2022-09-24T22:19:14.618Z,101552.13
2022-09-24T22:21:42.671Z,101558.44
2022-09-24T22:24:10.808Z,101554.34
2022-09-24T22:26:38.798Z,101559.84
2022-09-24T22:29:06.930Z,101550.44
2022-09-24T22:31:34.917Z,101550.25
2022-09-24T22:34:20.169Z,101540.16
2022-09-24T22:36:49.356Z,101544.94
2022-09-24T22:39:17.204Z,101545.81
2022-09-24T22:41:45.025Z,101530.22
2022-09-24T22:44:13.646Z,101543.56
2022-09-24T22:46:41.796Z,101539.13
2022-09-24T22:49:11.296Z,101547.19
2022-09-24T22:51:40.097Z,101542.22
2022-09-24T22:54:11.205Z,101539.63
2022-09-24T22:56:39.032Z,101540.66
2022-09-24T22:59:06.992Z,101539.97
2022-09-24T23:01:40.027Z,101540.31
2022-09-24T23:04:08.128Z,101538.63
2022-09-24T23:06:36.169Z,101540.66
2022-09-24T23:09:05.118Z,101539.63
2022-09-24T23:11:35.992Z,101541.19
2022-09-24T23:14:05.977Z,101539.28
2022-09-24T23:16:35.416Z,101545.59
2022-09-24T23:19:05.268Z,101543.06
2022-09-24T23:21:33.910Z,101544.78
2022-09-24T23:24:03.596Z,101542.69
2022-09-24T23:26:31.966Z,101538.28
2022-09-24T23:29:02.052Z,101543.03
2022-09-24T23:31:32.943Z,101552.47
2022-09-24T23:34:01.940Z,101542.00
2022-09-24T23:36:32.021Z,101545.97
2022-09-24T23:39:00.364Z,101539.28
2022-09-24T23:41:31.457Z,101537.06
2022-09-24T23:44:00.751Z,101538.09
2022-09-24T23:46:28.809Z,101544.75
2022-09-24T23:48:57.128Z,101541.00
2022-09-24T23:51:25.410Z,101543.75
2022-09-24T23:53:53.675Z,101546.47
2022-09-24T23:56:21.816Z,101540.66
2022-09-24T23:58:49.885Z,101551.78
